createdAt,value
2018-12-29T00:00:30.261Z,33.60
2018-12-29T00:03:01.506Z,35.33
2018-12-29T00:05:32.459Z,35.53
2018-12-29T00:08:03.392Z,33.83
2018-12-29T00:10:34.729Z,34.37
2018-12-29T00:13:05.601Z,33.93
2018-12-29T00:15:36.768Z,34.73
2018-12-29T00:18:07.717Z,33.83
2018-12-29T00:20:38.627Z,35.90
2018-12-29T00:23:09.517Z,34.33
2018-12-29T00:25:40.453Z,36.77
2018-12-29T00:28:14.173Z,33.27
2018-12-29T00:30:45.127Z,33.20
2018-12-29T00:33:16.360Z,34.40
2018-12-29T00:35:47.239Z,34.00
2018-12-29T00:38:18.291Z,34.33
2018-12-29T00:40:49.208Z,33.83
2018-12-29T00:43:20.095Z,32.90
2018-12-29T00:45:51.037Z,31.80
2018-12-29T00:48:22.252Z,30.60
2018-12-29T00:50:53.420Z,30.47
2018-12-29T00:53:24.335Z,33.80
2018-12-29T00:55:55.219Z,31.60
2018-12-29T00:58:26.092Z,30.60
2018-12-29T01:00:57.022Z,31.33
2018-12-29T01:03:27.937Z,31.90
2018-12-29T01:05:58.816Z,30.97
2018-12-29T01:08:29.901Z,31.83
2018-12-29T01:11:01.094Z,32.13
2018-12-29T01:13:31.976Z,29.03
2018-12-29T01:16:02.930Z,30.00
2018-12-29T01:18:34.098Z,30.60
2018-12-29T01:21:04.995Z,30.90
2018-12-29T01:23:35.993Z,30.23
2018-12-29T01:26:06.920Z,30.30
2018-12-29T01:28:37.809Z,31.73
2018-12-29T01:31:08.761Z,31.10
2018-12-29T01:33:39.660Z,28.20
2018-12-29T01:36:10.536Z,28.60
2018-12-29T01:38:41.583Z,28.50
2018-12-29T01:41:12.828Z,27.30
2018-12-29T01:43:43.734Z,28.33
2018-12-29T01:46:14.719Z,26.80
2018-12-29T01:48:45.954Z,25.83
2018-12-29T01:51:16.919Z,28.63
2018-12-29T01:53:50.950Z,26.90
2018-12-29T01:56:21.860Z,27.33
2018-12-29T01:58:53.050Z,25.30
2018-12-29T02:01:24.657Z,28.53
2018-12-29T02:03:55.627Z,29.60
2018-12-29T02:06:26.531Z,25.63
2018-12-29T02:08:57.789Z,27.43
2018-12-29T02:11:28.762Z,28.10
2018-12-29T02:13:59.644Z,28.23
2018-12-29T02:16:30.593Z,28.30
2018-12-29T02:19:01.537Z,26.33
2018-12-29T02:21:32.453Z,29.37
2018-12-29T02:24:04.442Z,27.87
2018-12-29T02:26:35.334Z,26.90
2018-12-29T02:29:06.536Z,27.67
2018-12-29T02:31:37.779Z,28.10
2018-12-29T02:34:08.899Z,28.13
2018-12-29T02:36:47.809Z,27.50
2018-12-29T02:39:18.821Z,27.63
2018-12-29T02:41:49.735Z,28.40
2018-12-29T02:44:20.668Z,30.00
2018-12-29T02:46:51.585Z,28.20
2018-12-29T02:49:22.515Z,29.07
2018-12-29T02:51:53.482Z,27.90
2018-12-29T02:54:24.409Z,29.50
2018-12-29T02:56:55.577Z,30.67
2018-12-29T02:59:26.885Z,27.30
2018-12-29T03:01:58.445Z,29.10
2018-12-29T03:04:29.561Z,29.30
2018-12-29T03:07:00.510Z,31.57
2018-12-29T03:09:31.428Z,30.07
2018-12-29T03:12:02.782Z,30.13
2018-12-29T03:14:33.760Z,31.03
2018-12-29T03:17:04.732Z,31.27
2018-12-29T03:19:35.947Z,31.43
2018-12-29T03:22:06.817Z,31.87
2018-12-29T03:24:37.682Z,33.47
2018-12-29T03:27:08.901Z,34.50
2018-12-29T03:29:40.376Z,35.30
2018-12-29T03:32:11.277Z,38.27
2018-12-29T03:34:42.264Z,35.77
2018-12-29T03:37:13.236Z,36.90
2018-12-29T03:39:44.169Z,36.60
2018-12-29T03:42:15.133Z,36.10
2018-12-29T03:44:46.329Z,36.40
2018-12-29T03:47:17.205Z,35.77
2018-12-29T03:49:48.138Z,35.90
2018-12-29T03:52:19.020Z,36.40
2018-12-29T03:54:49.998Z,37.20
2018-12-29T03:57:21.239Z,36.63
2018-12-29T03:59:52.125Z,37.57
2018-12-29T04:02:23.020Z,38.10
2018-12-29T04:04:54.017Z,36.23
2018-12-29T04:07:24.913Z,35.00
2018-12-29T04:09:56.467Z,37.43
2018-12-29T04:12:30.421Z,35.73
2018-12-29T04:15:01.387Z,35.07
2018-12-29T04:17:32.270Z,36.50
2018-12-29T04:20:03.270Z,36.67
2018-12-29T04:22:34.443Z,36.53
2018-12-29T04:25:05.680Z,37.60
2018-12-29T04:27:36.646Z,36.70
2018-12-29T04:30:07.850Z,36.63
2018-12-29T04:32:38.792Z,34.77
2018-12-29T04:35:09.720Z,36.07
2018-12-29T04:37:40.685Z,36.53
2018-12-29T04:40:11.562Z,33.77
2018-12-29T04:42:42.538Z,34.50
2018-12-29T04:45:13.420Z,34.07
2018-12-29T04:47:44.329Z,34.43
2018-12-29T04:50:15.250Z,33.87
2018-12-29T04:52:46.167Z,32.90
2018-12-29T04:55:17.086Z,31.23
2018-12-29T04:57:48.073Z,32.10
2018-12-29T05:00:19.320Z,31.40
2018-12-29T05:02:56.355Z,32.53
2018-12-29T05:05:27.245Z,31.90
2018-12-29T05:07:58.117Z,31.13
2018-12-29T05:10:29.049Z,32.20
2018-12-29T05:12:59.926Z,32.83
2018-12-29T05:15:30.881Z,32.07
2018-12-29T05:18:01.857Z,31.70
2018-12-29T05:20:32.747Z,29.23
2018-12-29T05:23:03.700Z,32.60
2018-12-29T05:25:35.041Z,31.60
2018-12-29T05:28:05.973Z,31.90
2018-12-29T05:30:36.841Z,31.67
2018-12-29T05:33:07.812Z,29.40
2018-12-29T05:35:38.737Z,29.47
2018-12-29T05:38:09.657Z,33.20
2018-12-29T05:40:40.650Z,31.17
2018-12-29T05:43:11.562Z,30.93
2018-12-29T05:45:42.532Z,30.60
2018-12-29T05:48:13.510Z,30.30
2018-12-29T05:50:44.422Z,28.20
2018-12-29T05:53:15.308Z,29.40
2018-12-29T05:55:46.591Z,31.10
2018-12-29T05:58:17.473Z,29.37
2018-12-29T06:00:48.845Z,29.00
2018-12-29T06:03:20.122Z,30.00
2018-12-29T06:05:51.037Z,29.70
2018-12-29T06:08:22.217Z,29.67
2018-12-29T06:10:53.203Z,27.07
2018-12-29T06:13:24.437Z,29.60
2018-12-29T06:15:55.339Z,26.67
2018-12-29T06:18:26.580Z,29.10
2018-12-29T06:20:57.749Z,29.13
2018-12-29T06:23:28.630Z,29.60
2018-12-29T06:25:59.639Z,29.07
2018-12-29T06:28:30.531Z,28.90
2018-12-29T06:31:01.448Z,27.60
2018-12-29T06:33:32.663Z,29.87
2018-12-29T06:36:03.573Z,29.50
2018-12-29T06:38:34.458Z,28.30
2018-12-29T06:41:05.418Z,30.80
2018-12-29T06:43:36.335Z,29.30
2018-12-29T06:46:07.255Z,29.13
2018-12-29T06:48:38.320Z,27.83
2018-12-29T06:51:09.244Z,28.33
2018-12-29T06:53:40.519Z,28.20
2018-12-29T06:56:11.474Z,26.77
2018-12-29T06:58:42.341Z,27.97
2018-12-29T07:01:13.227Z,26.13
2018-12-29T07:03:44.160Z,28.30
2018-12-29T07:06:15.068Z,29.03
2018-12-29T07:08:46.262Z,28.83
2018-12-29T07:11:17.347Z,27.50
2018-12-29T07:13:48.241Z,24.97
2018-12-29T07:16:19.507Z,27.30
2018-12-29T07:18:50.441Z,27.83
2018-12-29T07:21:27.672Z,27.53
2018-12-29T07:23:58.605Z,27.43
2018-12-29T07:26:29.513Z,26.33
2018-12-29T07:29:00.778Z,26.90
2018-12-29T07:31:31.730Z,28.20
2018-12-29T07:34:02.638Z,26.03
2018-12-29T07:36:33.540Z,25.90
2018-12-29T07:39:05.749Z,26.77
2018-12-29T07:41:46.279Z,27.47
2018-12-29T07:44:17.295Z,26.83
2018-12-29T07:46:49.794Z,26.63
2018-12-29T07:49:20.770Z,25.50
2018-12-29T07:51:52.093Z,25.50
2018-12-29T07:54:23.280Z,27.27
2018-12-29T07:56:54.199Z,27.70
2018-12-29T07:59:25.219Z,26.60
2018-12-29T08:01:56.124Z,27.67
2018-12-29T08:04:27.000Z,27.00
2018-12-29T08:06:57.967Z,27.10
2018-12-29T08:09:28.861Z,27.93
2018-12-29T08:11:59.782Z,26.70
2018-12-29T08:14:30.703Z,27.20
2018-12-29T08:17:01.897Z,24.50
2018-12-29T08:19:32.786Z,26.47
2018-12-29T08:22:03.742Z,28.07
2018-12-29T08:24:34.625Z,27.50
2018-12-29T08:27:05.540Z,27.20
2018-12-29T08:29:36.487Z,26.50
2018-12-29T08:32:07.482Z,28.20
2018-12-29T08:34:38.352Z,29.73
2018-12-29T08:37:09.325Z,29.23
2018-12-29T08:39:40.216Z,27.70
2018-12-29T08:42:11.134Z,27.10
2018-12-29T08:44:42.071Z,25.27
2018-12-29T08:47:12.956Z,26.30
2018-12-29T08:49:43.912Z,24.60
2018-12-29T08:52:14.893Z,27.00
2018-12-29T08:54:46.086Z,25.10
2018-12-29T08:57:16.971Z,24.53
2018-12-29T08:59:47.923Z,23.07
2018-12-29T09:02:19.130Z,22.50
2018-12-29T09:04:50.051Z,25.03
2018-12-29T09:07:21.006Z,23.10
2018-12-29T09:09:51.908Z,24.80
2018-12-29T09:12:22.795Z,23.57
2018-12-29T09:14:53.838Z,23.10
2018-12-29T09:17:25.082Z,24.37
2018-12-29T09:19:56.031Z,24.37
2018-12-29T09:22:27.058Z,24.00
2018-12-29T09:24:58.012Z,22.13
2018-12-29T09:27:28.921Z,22.83
2018-12-29T09:30:00.266Z,23.23
2018-12-29T09:32:31.532Z,22.60
2018-12-29T09:35:02.547Z,21.37
2018-12-29T09:37:33.419Z,21.60
2018-12-29T09:40:04.818Z,20.73
2018-12-29T09:42:35.748Z,20.60
2018-12-29T09:45:06.848Z,20.10
2018-12-29T09:47:37.864Z,20.53
2018-12-29T09:50:08.961Z,20.17
2018-12-29T09:52:40.310Z,19.73
2018-12-29T09:55:11.223Z,19.03
2018-12-29T09:57:42.392Z,20.07
2018-12-29T10:00:13.359Z,18.80
2018-12-29T10:02:44.247Z,16.97
2018-12-29T10:05:15.148Z,18.47
2018-12-29T10:07:46.113Z,19.10
2018-12-29T10:10:17.295Z,19.20
2018-12-29T10:12:48.554Z,20.10
2018-12-29T10:15:19.461Z,20.30
2018-12-29T10:17:50.414Z,18.83
2018-12-29T10:20:21.599Z,18.90
2018-12-29T10:22:52.874Z,19.27
2018-12-29T10:25:23.829Z,19.00
2018-12-29T10:27:54.732Z,19.23
2018-12-29T10:30:25.658Z,20.23
2018-12-29T10:32:56.561Z,21.20
2018-12-29T10:35:27.463Z,20.50
2018-12-29T10:37:58.410Z,19.93
2018-12-29T10:40:29.624Z,19.33
2018-12-29T10:43:00.861Z,19.93
2018-12-29T10:45:31.750Z,21.47
2018-12-29T10:48:02.672Z,20.27
2018-12-29T10:50:33.562Z,20.53
2018-12-29T10:53:04.829Z,22.40
2018-12-29T10:55:35.723Z,21.67
2018-12-29T10:58:06.669Z,20.03
2018-12-29T11:00:37.580Z,22.17
2018-12-29T11:03:08.732Z,22.17
2018-12-29T11:05:39.677Z,22.83
2018-12-29T11:08:10.627Z,21.07
2018-12-29T11:10:41.531Z,21.37
2018-12-29T11:13:12.461Z,22.20
2018-12-29T11:15:43.346Z,23.30
2018-12-29T11:18:14.254Z,22.80
2018-12-29T11:20:45.129Z,22.23
2018-12-29T11:23:16.121Z,22.13
2018-12-29T11:25:47.365Z,21.10
2018-12-29T11:28:18.327Z,21.30
2018-12-29T11:30:49.214Z,22.83
2018-12-29T11:33:20.427Z,22.10
2018-12-29T11:35:51.310Z,22.27
2018-12-29T11:38:22.214Z,23.30
2018-12-29T11:40:53.415Z,21.90
2018-12-29T11:43:24.323Z,22.50
2018-12-29T11:45:55.343Z,22.03
2018-12-29T11:48:26.236Z,21.20
2018-12-29T11:50:57.117Z,21.77
2018-12-29T11:53:28.121Z,21.93
2018-12-29T11:55:59.077Z,23.10
2018-12-29T11:58:30.087Z,21.00
2018-12-29T12:01:01.416Z,22.77
2018-12-29T12:03:32.354Z,22.80
2018-12-29T12:06:03.269Z,23.47
2018-12-29T12:08:34.247Z,22.23
2018-12-29T12:11:05.168Z,22.63
2018-12-29T12:13:36.132Z,22.07
2018-12-29T12:16:07.152Z,22.57
2018-12-29T12:18:38.072Z,19.80
2018-12-29T12:21:09.044Z,21.53
2018-12-29T12:23:40.275Z,22.00
2018-12-29T12:26:11.349Z,21.80
2018-12-29T12:28:42.328Z,21.20
2018-12-29T12:31:14.193Z,21.37
2018-12-29T12:33:45.214Z,21.80
2018-12-29T12:36:16.456Z,20.97
2018-12-29T12:38:47.362Z,21.27
2018-12-29T12:41:18.364Z,22.70
2018-12-29T12:43:50.032Z,20.40
2018-12-29T12:46:21.034Z,21.27
2018-12-29T12:48:52.278Z,23.10
2018-12-29T12:51:23.242Z,22.37
2018-12-29T12:53:54.417Z,21.30
2018-12-29T12:56:25.656Z,21.90
2018-12-29T12:58:56.653Z,20.77
2018-12-29T13:01:28.002Z,23.20
2018-12-29T13:03:59.271Z,21.63
2018-12-29T13:06:30.464Z,22.83
2018-12-29T13:09:01.745Z,20.97
2018-12-29T13:11:32.711Z,22.67
2018-12-29T13:14:03.742Z,21.07
2018-12-29T13:16:34.635Z,21.80
2018-12-29T13:19:05.641Z,21.40
2018-12-29T13:21:36.906Z,22.70
2018-12-29T13:24:08.123Z,25.10
2018-12-29T13:26:39.115Z,22.93
2018-12-29T13:29:10.077Z,23.50
2018-12-29T13:31:41.071Z,23.27
2018-12-29T13:34:12.077Z,23.13
2018-12-29T13:36:43.083Z,23.40
2018-12-29T13:39:14.049Z,24.47
2018-12-29T13:41:45.014Z,22.50
2018-12-29T13:44:15.907Z,23.00
2018-12-29T13:46:46.895Z,23.23
2018-12-29T13:49:17.904Z,23.60
2018-12-29T13:51:48.869Z,23.47
2018-12-29T13:54:19.829Z,24.33
2018-12-29T13:56:50.797Z,23.10
2018-12-29T13:59:22.003Z,22.47
2018-12-29T14:01:52.979Z,24.23
2018-12-29T14:04:23.983Z,24.33
2018-12-29T14:06:55.285Z,22.53
2018-12-29T14:09:26.221Z,23.13
2018-12-29T14:11:59.295Z,23.40
2018-12-29T14:14:30.345Z,23.30
2018-12-29T14:17:01.359Z,23.23
2018-12-29T14:19:32.334Z,23.13
2018-12-29T14:22:03.303Z,25.57
2018-12-29T14:24:34.604Z,23.47
2018-12-29T14:27:05.791Z,25.00
2018-12-29T14:29:36.814Z,21.93
2018-12-29T14:32:07.766Z,24.40
2018-12-29T14:34:38.749Z,23.60
2018-12-29T14:37:09.745Z,24.80
2018-12-29T14:39:40.698Z,25.37
2018-12-29T14:42:11.673Z,24.63
2018-12-29T14:44:42.687Z,24.30
2018-12-29T14:47:13.726Z,24.87
2018-12-29T14:49:44.764Z,22.93
2018-12-29T14:52:16.146Z,24.23
2018-12-29T14:54:47.180Z,23.97
2018-12-29T14:57:18.381Z,23.50
2018-12-29T14:59:49.655Z,25.13
2018-12-29T15:02:20.858Z,24.13
2018-12-29T15:04:52.794Z,23.07
2018-12-29T15:07:23.808Z,21.63
2018-12-29T15:09:55.119Z,21.97
2018-12-29T15:12:26.134Z,20.60
2018-12-29T15:14:57.429Z,21.83
2018-12-29T15:17:28.393Z,20.40
2018-12-29T15:19:59.423Z,20.37
2018-12-29T15:22:30.410Z,19.50
2018-12-29T15:25:01.385Z,18.90
2018-12-29T15:27:32.687Z,20.60
2018-12-29T15:30:03.672Z,18.10
2018-12-29T15:32:34.669Z,16.57
2018-12-29T15:35:05.872Z,16.10
2018-12-29T15:37:37.169Z,17.03
2018-12-29T15:40:08.243Z,16.37
2018-12-29T15:42:44.860Z,17.37
2018-12-29T15:45:11.914Z,18.30
2018-12-29T15:47:42.925Z,18.50
2018-12-29T15:50:13.946Z,19.70
2018-12-29T15:52:44.905Z,18.80
2018-12-29T15:55:15.875Z,19.20
2018-12-29T15:57:46.886Z,19.70
2018-12-29T16:00:17.821Z,20.30
2018-12-29T16:02:48.831Z,19.67
2018-12-29T16:05:27.760Z,19.53
2018-12-29T16:07:59.314Z,19.93
2018-12-29T16:10:30.605Z,19.50
2018-12-29T16:13:01.876Z,19.00
2018-12-29T16:15:32.834Z,19.17
2018-12-29T16:18:04.496Z,18.03
2018-12-29T16:20:35.752Z,18.53
2018-12-29T16:23:06.731Z,17.33
2018-12-29T16:25:37.734Z,16.90
2018-12-29T16:28:08.697Z,18.23
2018-12-29T16:30:39.931Z,18.30
2018-12-29T16:33:11.199Z,17.07
2018-12-29T16:35:42.243Z,17.77
2018-12-29T16:38:13.547Z,27.57
2018-12-29T16:40:44.511Z,21.40
2018-12-29T16:43:15.519Z,19.33
2018-12-29T16:45:48.246Z,21.30
2018-12-29T16:48:19.250Z,18.17
2018-12-29T16:50:50.573Z,18.60
2018-12-29T16:53:28.966Z,19.37
2018-12-29T16:55:54.202Z,19.53
2018-12-29T16:58:25.171Z,18.33
2018-12-29T17:00:56.341Z,18.77
2018-12-29T17:03:27.387Z,19.67
2018-12-29T17:05:58.354Z,18.60
2018-12-29T17:08:29.311Z,18.03
2018-12-29T17:11:00.659Z,16.80
2018-12-29T17:13:31.787Z,15.93
2018-12-29T17:16:02.764Z,15.77
2018-12-29T17:18:33.780Z,15.00
2018-12-29T17:21:05.321Z,15.93
2018-12-29T17:23:36.325Z,16.10
2018-12-29T17:26:07.309Z,14.53
2018-12-29T17:28:38.631Z,14.50
2018-12-29T17:31:09.604Z,16.30
2018-12-29T17:33:40.584Z,15.23
2018-12-29T17:36:11.868Z,16.73
2018-12-29T17:38:42.841Z,16.70
2018-12-29T17:41:13.918Z,15.07
2018-12-29T17:43:45.212Z,16.00
2018-12-29T17:46:16.818Z,13.90
2018-12-29T17:48:48.082Z,13.00
2018-12-29T17:51:18.982Z,12.47
2018-12-29T17:53:49.937Z,14.20
2018-12-29T17:56:21.313Z,13.87
2018-12-29T17:58:52.304Z,12.90
2018-12-29T18:01:23.330Z,11.90
2018-12-29T18:03:54.627Z,11.10
2018-12-29T18:06:25.606Z,11.67
2018-12-29T18:08:57.083Z,12.23
2018-12-29T18:11:28.048Z,10.67
2018-12-29T18:13:59.044Z,10.80
2018-12-29T18:16:30.010Z,10.30
2018-12-29T18:19:01.012Z,8.37
2018-12-29T18:21:31.991Z,8.47
2018-12-29T18:24:02.936Z,8.70
2018-12-29T18:26:33.908Z,9.20
2018-12-29T18:29:05.203Z,9.03
2018-12-29T18:31:36.236Z,8.70
2018-12-29T18:34:07.243Z,9.70
2018-12-29T18:36:38.225Z,10.77
2018-12-29T18:39:10.477Z,9.80
2018-12-29T18:41:41.456Z,10.70
2018-12-29T18:44:12.801Z,9.97
2018-12-29T18:46:43.772Z,10.03
2018-12-29T18:49:14.807Z,9.30
2018-12-29T18:51:45.770Z,10.07
2018-12-29T18:54:16.766Z,10.50
2018-12-29T18:56:47.731Z,8.90
2018-12-29T18:59:19.075Z,11.10
2018-12-29T19:01:57.338Z,11.23
2018-12-29T19:04:23.185Z,10.17
2018-12-29T19:06:54.469Z,10.27
2018-12-29T19:09:25.445Z,10.13
2018-12-29T19:11:56.442Z,10.63
2018-12-29T19:14:27.462Z,11.07
2018-12-29T19:16:58.779Z,10.53
2018-12-29T19:19:30.677Z,12.17
2018-12-29T19:22:01.988Z,11.80
2018-12-29T19:24:33.043Z,12.73
2018-12-29T19:27:04.055Z,12.60
2018-12-29T19:29:35.044Z,13.40
2018-12-29T19:32:06.384Z,14.87
2018-12-29T19:34:37.576Z,14.93
2018-12-29T19:37:08.910Z,20.30
2018-12-29T19:39:40.121Z,15.90
2018-12-29T19:42:11.095Z,14.33
2018-12-29T19:44:42.429Z,14.67
2018-12-29T19:47:13.750Z,13.83
2018-12-29T19:49:44.784Z,13.90
2018-12-29T19:52:15.793Z,15.70
2018-12-29T19:54:46.799Z,15.37
2018-12-29T19:57:18.119Z,15.10
2018-12-29T19:59:49.704Z,15.77
2018-12-29T20:02:21.047Z,15.40
2018-12-29T20:04:52.626Z,16.50
2018-12-29T20:07:24.362Z,17.80
2018-12-29T20:09:55.343Z,16.40
2018-12-29T20:12:26.683Z,18.50
2018-12-29T20:14:57.735Z,20.30
2018-12-29T20:17:34.862Z,17.87
2018-12-29T20:20:01.872Z,17.77
2018-12-29T20:22:33.315Z,17.90
2018-12-29T20:25:04.454Z,18.60
2018-12-29T20:27:35.426Z,18.53
2018-12-29T20:30:07.733Z,18.30
2018-12-29T20:32:38.849Z,18.70
2018-12-29T20:35:10.149Z,18.70
2018-12-29T20:37:41.485Z,17.13
2018-12-29T20:40:13.111Z,17.20
2018-12-29T20:42:44.184Z,17.40
2018-12-29T20:45:15.344Z,17.60
2018-12-29T20:47:46.415Z,17.60
2018-12-29T20:50:17.492Z,18.27
2018-12-29T20:52:48.944Z,15.03
2018-12-29T20:55:20.761Z,13.90
2018-12-29T20:57:53.475Z,11.77
2018-12-29T21:00:24.404Z,9.67
2018-12-29T21:02:56.088Z,7.80
2018-12-29T21:05:27.445Z,7.20
2018-12-29T21:07:59.016Z,6.80
2018-12-29T21:10:30.765Z,6.60
2018-12-29T21:13:01.775Z,5.30
2018-12-29T21:15:33.048Z,5.07
2018-12-29T21:18:04.071Z,4.97
2018-12-29T21:20:35.046Z,4.40
2018-12-29T21:23:06.114Z,3.97
2018-12-29T21:25:37.081Z,3.67
2018-12-29T21:28:08.096Z,3.50
2018-12-29T21:30:39.069Z,3.40
2018-12-29T21:33:10.015Z,3.50
2018-12-29T21:35:41.007Z,2.87
2018-12-29T21:38:12.218Z,3.30
2018-12-29T21:40:43.232Z,2.70
2018-12-29T21:43:14.489Z,3.00
2018-12-29T21:45:45.813Z,3.83
2018-12-29T21:48:16.786Z,4.00
2018-12-29T21:50:47.749Z,4.40
2018-12-29T21:53:18.810Z,2.27
2018-12-29T21:55:49.875Z,1.67
2018-12-29T21:58:20.859Z,2.30
2018-12-29T22:00:52.034Z,2.13
2018-12-29T22:03:23.023Z,1.97
2018-12-29T22:05:54.006Z,1.37
2018-12-29T22:08:25.114Z,1.87
2018-12-29T22:10:56.403Z,1.87
2018-12-29T22:13:27.547Z,1.50
2018-12-29T22:15:58.537Z,1.50
2018-12-29T22:18:29.499Z,1.47
2018-12-29T22:21:00.519Z,1.50
2018-12-29T22:23:31.865Z,1.20
2018-12-29T22:26:03.349Z,1.20
2018-12-29T22:28:34.403Z,1.17
2018-12-29T22:31:05.661Z,1.63
2018-12-29T22:33:36.640Z,1.20
2018-12-29T22:36:08.249Z,1.20
2018-12-29T22:38:39.506Z,1.00
2018-12-29T22:41:10.790Z,0.70
2018-12-29T22:43:41.776Z,0.80
2018-12-29T22:46:12.761Z,0.97
2018-12-29T22:48:43.807Z,0.87
2018-12-29T22:51:14.842Z,0.90
2018-12-29T22:53:46.168Z,0.83
2018-12-29T22:56:17.431Z,0.97
2018-12-29T22:58:48.730Z,1.20
2018-12-29T23:01:19.812Z,0.87
2018-12-29T23:03:50.787Z,1.00
2018-12-29T23:06:21.826Z,0.87
2018-12-29T23:08:52.794Z,0.80
2018-12-29T23:11:23.770Z,0.90
2018-12-29T23:13:54.894Z,1.07
2018-12-29T23:16:25.926Z,0.90
2018-12-29T23:18:57.290Z,0.80
2018-12-29T23:21:28.579Z,1.10
2018-12-29T23:24:00.053Z,0.90
2018-12-29T23:26:31.073Z,1.30
2018-12-29T23:29:02.078Z,1.30
2018-12-29T23:31:33.091Z,1.40
2018-12-29T23:34:04.073Z,1.40
2018-12-29T23:36:35.082Z,1.53
2018-12-29T23:39:06.385Z,1.70
2018-12-29T23:41:37.357Z,1.33
2018-12-29T23:44:08.346Z,1.40
2018-12-29T23:46:39.371Z,1.20
2018-12-29T23:49:10.681Z,1.40
2018-12-29T23:51:41.773Z,1.30
2018-12-29T23:54:13.067Z,1.27
2018-12-29T23:56:44.235Z,1.30
2018-12-29T23:59:15.195Z,0.97
